Bouzas — EAPC — position and weather

sailwx.info

Track history (hours):
 
Tides and Currents Weather Stations Pressure Air Temp Water Temp Dewpoint Dewpoint Depression Visibility Wind Speed Wind Dir Waves Ship Positions

Bouzas

Last reported at 2017-Jan-19 00:06 UTC. Time now 2017-Jan-21 19:36 UTC.
Position N 46°49' W 003°06'.

Length 142 m; draft 5.9 m.

Type: Cargo ship. MMSI: 224029000.

Date/timePositionNaut miles runAvg speedWind from/ knotsBaromVisibWave heightAir tempDewpointWater temp
2017-Jan-19 00:06N 46°49' W 003°06'1118.5
2017-Jan-18 23:30N 46°55' W 002°52'1718.0
2017-Jan-18 22:34N 47°03' W 002°31'1616.5
2017-Jan-18 21:34N 47°15' W 002°14'4 3.3
2017-Jan-18 20:27N 47°17' W 002°10'0 0.0
2017-Jan-18 19:33N 47°17' W 002°10'0 0.0
2017-Jan-18 18:33N 47°17' W 002°10'0 0.0
2017-Jan-18 17:33N 47°17' W 002°10'0 0.0
2017-Jan-18 13:18N 47°17' W 002°10'0 0.0
2017-Jan-18 12:30N 47°17' W 002°10'0 0.0
2017-Jan-18 09:12N 47°17' W 002°10'0 0.0
2017-Jan-18 06:29N 47°17' W 002°10'0 0.0
2017-Jan-18 05:17N 47°17' W 002°10'0 0.0
2017-Jan-18 04:17N 47°17' W 002°10'0 0.0
2017-Jan-18 03:23N 47°17' W 002°10'0 0.0
2017-Jan-18 02:32N 47°17' W 002°10'0 0.0
2017-Jan-18 01:20N 47°17' W 002°10'0 0.0
2017-Jan-18 00:26N 47°17' W 002°10'0 0.0
2017-Jan-17 23:29N 47°17' W 002°10'0 0.0
2017-Jan-17 22:14N 47°17' W 002°10'1 2.1
2017-Jan-17 21:33N 47°16' W 002°11'1312.8
2017-Jan-17 20:33N 47°07' W 002°23'1111.4
2017-Jan-17 19:33N 47°00' W 002°37'  
2017-Jan-14 16:33N 46°48' W 003°08'1716.9
2017-Jan-14 15:33N 46°57' W 002°47'2115.7
2017-Jan-14 14:13N 47°08' W 002°21'10 0.2
2017-Jan-12 20:09N 47°02' W 002°33'915.0
2017-Jan-12 19:33N 46°57' W 002°44'  
2017-Jan-10 00:33N 46°48' W 003°08'1816.8
2017-Jan-09 23:27N 46°58' W 002°46'1716.0
2017-Jan-09 22:22N 47°06' W 002°23'1012.5
2017-Jan-09 21:32N 47°15' W 002°14'4 4.1
2017-Jan-09 20:31N 47°17' W 002°10'0 0.0
2017-Jan-09 19:31N 47°17' W 002°10'0 0.0
2017-Jan-09 18:22N 47°17' W 002°10'0 0.0
2017-Jan-09 17:28N 47°17' W 002°10'0 0.0
2017-Jan-09 14:07N 47°17' W 002°10'0 0.0
2017-Jan-09 13:31N 47°17' W 002°10'0 0.0
2017-Jan-09 07:24N 47°17' W 002°10'0 0.0
2017-Jan-09 06:03N 47°17' W 002°10'  
Track history (hours):
 
Tides and Currents Weather Stations Pressure Air Temp Water Temp Dewpoint Dewpoint Depression Visibility Wind Speed Wind Dir Waves Ship Positions

Bouzas

Last reported at 2017-Jan-19 00:06 UTC. Time now 2017-Jan-21 19:36 UTC.
Position N 46°49' W 003°06'.

Length 142 m; draft 5.9 m.

Type: Cargo ship. MMSI: 224029000.

Date/timePositionNaut miles runAvg speedWind from/ knotsBaromVisibWave heightAir tempDewpointWater temp
2017-Jan-19 00:06N 46°49' W 003°06'1118.5
2017-Jan-18 23:30N 46°55' W 002°52'1718.0
2017-Jan-18 22:34N 47°03' W 002°31'1616.5
2017-Jan-18 21:34N 47°15' W 002°14'4 3.3
2017-Jan-18 20:27N 47°17' W 002°10'0 0.0
2017-Jan-18 19:33N 47°17' W 002°10'0 0.0
2017-Jan-18 18:33N 47°17' W 002°10'0 0.0
2017-Jan-18 17:33N 47°17' W 002°10'0 0.0
2017-Jan-18 13:18N 47°17' W 002°10'0 0.0
2017-Jan-18 12:30N 47°17' W 002°10'0 0.0
2017-Jan-18 09:12N 47°17' W 002°10'0 0.0
2017-Jan-18 06:29N 47°17' W 002°10'0 0.0
2017-Jan-18 05:17N 47°17' W 002°10'0 0.0
2017-Jan-18 04:17N 47°17' W 002°10'0 0.0
2017-Jan-18 03:23N 47°17' W 002°10'0 0.0
2017-Jan-18 02:32N 47°17' W 002°10'0 0.0
2017-Jan-18 01:20N 47°17' W 002°10'0 0.0
2017-Jan-18 00:26N 47°17' W 002°10'0 0.0
2017-Jan-17 23:29N 47°17' W 002°10'0 0.0
2017-Jan-17 22:14N 47°17' W 002°10'1 2.1
2017-Jan-17 21:33N 47°16' W 002°11'1312.8
2017-Jan-17 20:33N 47°07' W 002°23'1111.4
2017-Jan-17 19:33N 47°00' W 002°37'  
2017-Jan-14 16:33N 46°48' W 003°08'1716.9
2017-Jan-14 15:33N 46°57' W 002°47'2115.7
2017-Jan-14 14:13N 47°08' W 002°21'10 0.2
2017-Jan-12 20:09N 47°02' W 002°33'915.0
2017-Jan-12 19:33N 46°57' W 002°44'  
2017-Jan-10 00:33N 46°48' W 003°08'1816.8
2017-Jan-09 23:27N 46°58' W 002°46'1716.0
2017-Jan-09 22:22N 47°06' W 002°23'1012.5
2017-Jan-09 21:32N 47°15' W 002°14'4 4.1
2017-Jan-09 20:31N 47°17' W 002°10'0 0.0
2017-Jan-09 19:31N 47°17' W 002°10'0 0.0
2017-Jan-09 18:22N 47°17' W 002°10'0 0.0
2017-Jan-09 17:28N 47°17' W 002°10'0 0.0
2017-Jan-09 14:07N 47°17' W 002°10'0 0.0
2017-Jan-09 13:31N 47°17' W 002°10'0 0.0
2017-Jan-09 07:24N 47°17' W 002°10'0 0.0
2017-Jan-09 06:03N 47°17' W 002°10'  

Dump ship's entire track history